createdAt,value
2022-07-28T00:05:16.740Z,16.71
2022-07-28T00:12:20.124Z,16.72
2022-07-28T00:19:24.137Z,16.50
2022-07-28T00:26:27.971Z,16.45
2022-07-28T00:33:30.352Z,16.44
2022-07-28T00:40:51.820Z,16.26
2022-07-28T00:47:55.626Z,16.06
2022-07-28T00:54:58.178Z,15.83
2022-07-28T01:02:00.467Z,15.83
2022-07-28T01:09:06.772Z,15.77
2022-07-28T01:16:09.081Z,15.47
2022-07-28T01:23:21.369Z,15.48
2022-07-28T01:30:32.666Z,15.50
2022-07-28T01:37:34.940Z,15.36
2022-07-28T01:44:38.988Z,15.35
2022-07-28T01:51:42.674Z,15.21
2022-07-28T01:58:44.890Z,15.18
2022-07-28T02:05:47.300Z,15.08
2022-07-28T02:12:51.104Z,15.03
2022-07-28T02:19:53.521Z,14.84
2022-07-28T02:26:59.269Z,14.83
2022-07-28T02:34:03.102Z,14.87
2022-07-28T02:41:08.409Z,14.72
2022-07-28T02:48:14.409Z,14.66
2022-07-28T02:55:17.994Z,14.61
2022-07-28T03:02:20.397Z,14.50
2022-07-28T03:09:22.602Z,14.49
2022-07-28T03:16:26.655Z,14.49
2022-07-28T03:23:30.648Z,14.58
2022-07-28T03:30:43.132Z,14.46
2022-07-28T03:37:50.317Z,14.54
2022-07-28T03:44:52.720Z,14.53
2022-07-28T03:51:55.021Z,14.44
2022-07-28T03:59:01.616Z,14.36
2022-07-28T04:06:04.050Z,14.28
2022-07-28T04:13:06.364Z,14.40
2022-07-28T04:20:11.137Z,14.35
2022-07-28T04:27:13.404Z,14.40
2022-07-28T04:34:16.392Z,14.36
2022-07-28T04:41:20.578Z,14.61
2022-07-28T04:48:25.120Z,15.40
2022-07-28T04:55:29.793Z,16.00
2022-07-28T05:02:35.726Z,15.60
2022-07-28T05:09:37.968Z,15.51
2022-07-28T05:16:40.277Z,16.39
2022-07-28T05:23:47.724Z,17.06
2022-07-28T05:30:50.136Z,17.33
2022-07-28T05:37:52.679Z,17.15
2022-07-28T05:44:56.457Z,17.49
2022-07-28T05:51:58.797Z,16.49
2022-07-28T05:59:01.069Z,18.35
2022-07-28T06:06:15.794Z,17.25
2022-07-28T06:13:18.979Z,18.06
2022-07-28T06:20:21.711Z,18.24
2022-07-28T06:27:25.330Z,18.16
2022-07-28T06:34:27.677Z,18.69
2022-07-28T06:41:29.919Z,19.39
2022-07-28T06:48:39.399Z,19.53
2022-07-28T06:55:41.992Z,19.65
2022-07-28T07:02:51.589Z,20.33
2022-07-28T07:09:55.170Z,21.24
2022-07-28T07:16:57.400Z,21.24
2022-07-28T07:23:59.646Z,21.41
2022-07-28T07:31:03.344Z,21.59
2022-07-28T07:38:05.734Z,21.93
2022-07-28T07:45:08.890Z,21.25
2022-07-28T07:52:12.443Z,21.89
2022-07-28T07:59:14.874Z,22.32
2022-07-28T08:06:17.118Z,22.19
2022-07-28T08:13:29.968Z,22.81
2022-07-28T08:20:32.190Z,22.67
2022-07-28T08:27:36.645Z,22.95
2022-07-28T08:34:40.260Z,23.17
2022-07-28T08:41:46.323Z,23.14
2022-07-28T08:48:48.902Z,23.22
2022-07-28T08:55:52.473Z,23.46
2022-07-28T09:02:56.882Z,23.17
2022-07-28T09:10:02.769Z,23.70
2022-07-28T09:17:06.866Z,23.82
2022-07-28T09:24:09.233Z,23.96
2022-07-28T09:31:14.080Z,23.98
2022-07-28T09:38:18.055Z,24.35
2022-07-28T09:45:23.366Z,24.35
2022-07-28T09:52:30.358Z,24.53
2022-07-28T09:59:43.571Z,25.12
2022-07-28T10:06:52.631Z,25.17
2022-07-28T10:14:00.210Z,24.49
2022-07-28T10:21:04.046Z,25.63
2022-07-28T10:28:08.550Z,25.44
2022-07-28T10:35:11.683Z,25.13
2022-07-28T10:42:15.456Z,25.58
2022-07-28T10:49:17.800Z,24.66
2022-07-28T10:56:23.304Z,25.75
2022-07-28T11:03:43.178Z,26.16
2022-07-28T11:10:47.213Z,26.17
2022-07-28T11:17:57.552Z,26.73
2022-07-28T11:25:19.819Z,26.01
2022-07-28T11:32:26.482Z,26.10
2022-07-28T11:39:30.592Z,25.19
2022-07-28T11:46:46.657Z,26.61
2022-07-28T11:53:55.545Z,26.66
2022-07-28T12:01:13.402Z,26.75
2022-07-28T12:08:21.401Z,28.19
2022-07-28T12:15:26.123Z,27.51
2022-07-28T12:22:30.495Z,27.06
2022-07-28T12:29:35.667Z,26.52
2022-07-28T12:36:38.704Z,27.87
2022-07-28T12:43:49.339Z,27.93
2022-07-28T12:50:53.064Z,28.00
2022-07-28T12:57:55.403Z,28.07
2022-07-28T13:04:57.705Z,27.36
2022-07-28T13:12:01.489Z,26.35
2022-07-28T13:19:08.866Z,26.23
2022-07-28T13:26:11.110Z,26.25
2022-07-28T13:33:14.819Z,26.01
2022-07-28T13:40:17.236Z,26.23
2022-07-28T13:47:19.510Z,26.25
2022-07-28T13:54:23.211Z,26.25
2022-07-28T14:01:26.391Z,26.34
2022-07-28T14:08:32.269Z,26.45
2022-07-28T14:15:36.243Z,26.40
2022-07-28T14:22:39.603Z,26.21
2022-07-28T14:29:45.763Z,26.16
2022-07-28T14:36:53.139Z,26.04
2022-07-28T14:43:56.365Z,26.00
2022-07-28T14:51:01.805Z,25.71
2022-07-28T14:58:07.997Z,26.12
2022-07-28T15:05:10.577Z,26.26
2022-07-28T15:12:12.920Z,26.44
2022-07-28T15:19:21.134Z,26.49
2022-07-28T15:26:23.451Z,26.53
2022-07-28T15:33:25.809Z,26.78
2022-07-28T15:40:29.744Z,26.66
2022-07-28T15:47:32.564Z,26.40
2022-07-28T15:54:36.353Z,26.30
2022-07-28T16:01:45.193Z,26.18
2022-07-28T16:08:47.951Z,26.19
2022-07-28T16:15:50.462Z,26.15
2022-07-28T16:22:56.436Z,26.17
2022-07-28T16:29:58.946Z,25.96
2022-07-28T16:37:06.437Z,25.90
2022-07-28T16:44:10.205Z,25.86
2022-07-28T16:51:12.552Z,25.93
2022-07-28T16:58:15.202Z,25.90
2022-07-28T17:05:18.876Z,25.67
2022-07-28T17:12:21.171Z,25.69
2022-07-28T17:19:23.543Z,25.73
2022-07-28T17:27:32.369Z,25.58
2022-07-28T17:33:51.923Z,25.55
2022-07-28T17:40:55.168Z,25.35
2022-07-28T17:47:58.865Z,25.29
2022-07-28T17:55:19.894Z,25.14
2022-07-28T18:02:25.988Z,25.00
2022-07-28T18:09:29.788Z,24.80
2022-07-28T18:16:32.484Z,24.58
2022-07-28T18:23:35.563Z,24.28
2022-07-28T18:30:39.672Z,24.09
2022-07-28T18:37:45.952Z,23.85
2022-07-28T18:44:48.667Z,23.65
2022-07-28T18:51:53.149Z,23.45
2022-07-28T18:58:56.166Z,23.37
2022-07-28T19:05:58.515Z,23.26
2022-07-28T19:13:04.354Z,23.19
2022-07-28T19:20:11.691Z,23.24
2022-07-28T19:27:14.101Z,23.16
2022-07-28T19:34:18.357Z,23.08
2022-07-28T19:41:21.010Z,23.04
2022-07-28T19:48:23.910Z,22.89
2022-07-28T19:55:29.257Z,22.90
2022-07-28T20:02:33.873Z,22.77
2022-07-28T20:09:36.193Z,22.71
2022-07-28T20:16:40.074Z,22.63
2022-07-28T20:23:42.506Z,22.62
2022-07-28T20:30:47.041Z,22.73
2022-07-28T20:37:50.754Z,22.78
2022-07-28T20:44:53.299Z,22.75
2022-07-28T20:51:55.769Z,22.72
2022-07-28T20:59:06.421Z,22.87
2022-07-28T21:06:09.283Z,21.92
2022-07-28T21:13:14.442Z,18.32
2022-07-28T21:20:18.108Z,17.42
2022-07-28T21:27:20.509Z,16.98
2022-07-28T21:34:22.940Z,16.77
2022-07-28T21:41:27.128Z,16.83
2022-07-28T21:48:41.266Z,16.58
2022-07-28T21:55:43.984Z,16.59
2022-07-28T22:02:48.829Z,16.46
2022-07-28T22:09:51.376Z,16.32
2022-07-28T22:16:53.701Z,16.24
2022-07-28T22:23:57.441Z,16.16
2022-07-28T22:31:08.696Z,16.29
2022-07-28T22:38:12.303Z,16.30
2022-07-28T22:45:16.522Z,16.28
2022-07-28T22:52:38.917Z,16.47
2022-07-28T22:59:42.149Z,16.62
2022-07-28T23:06:50.648Z,16.72
2022-07-28T23:13:52.906Z,16.84
2022-07-28T23:20:55.264Z,16.85
2022-07-28T23:28:00.701Z,16.81
2022-07-28T23:35:03.071Z,16.69
2022-07-28T23:42:08.464Z,16.56
2022-07-28T23:49:12.258Z,16.46
2022-07-28T23:56:15.482Z,16.39
